Time;durP1;ratioP1;P1;durP2;ratioP2;P2;SDS_P1;SDS_P2;PMS_P1;PMS_P2;Temp;Humidity;BMP_temperature;BMP_pressure;BME280_temperature;BME280_humidity;BME280_pressure;Samples;Min_cycle;Max_cycle;Signal;HPM_P1;HPM_P2
2021/07/16 00:01:23;;;;;;;2.70;1.30;;;18.70;99.90;;;;;;5033781;28;20188;-61
2021/07/16 00:03:49;;;;;;;2.80;1.80;;;18.70;99.90;;;;;;5033550;28;20175;-60
2021/07/16 00:06:15;;;;;;;1.77;1.67;;;18.70;99.90;;;;;;5033604;28;20173;-61
2021/07/16 00:08:40;;;;;;;1.90;1.80;;;18.60;99.90;;;;;;5026118;28;20214;-59
2021/07/16 00:11:06;;;;;;;2.07;1.90;;;18.60;99.90;;;;;;5013969;28;20157;-62
2021/07/16 00:13:31;;;;;;;5.13;2.30;;;18.50;99.90;;;;;;5017458;28;20206;-59
2021/07/16 00:15:57;;;;;;;2.07;1.97;;;18.50;99.90;;;;;;5017900;28;20179;-61
2021/07/16 00:18:22;;;;;;;2.27;2.10;;;18.40;99.90;;;;;;5017116;28;20280;-61
2021/07/16 00:20:48;;;;;;;2.30;2.20;;;18.30;99.90;;;;;;5032351;28;20234;-63
2021/07/16 00:23:14;;;;;;;2.80;2.60;;;18.20;99.90;;;;;;5017294;28;20508;-62
2021/07/16 00:25:40;;;;;;;2.57;2.20;;;18.20;99.90;;;;;;5017635;28;20647;-59
2021/07/16 00:28:07;;;;;;;2.50;2.30;;;18.20;99.90;;;;;;5016893;28;20241;-61
2021/07/16 00:30:33;;;;;;;4.37;2.87;;;18.10;99.90;;;;;;5017474;28;20192;-62
2021/07/16 00:32:58;;;;;;;57.57;6.37;;;18.10;99.90;;;;;;5017057;28;20207;-63
2021/07/16 00:35:24;;;;;;;25.27;5.40;;;18.10;99.90;;;;;;5017190;28;20189;-61
2021/07/16 00:37:49;;;;;;;2.97;2.40;;;18.10;99.90;;;;;;5017167;28;20198;-58
2021/07/16 00:40:16;;;;;;;2.93;2.40;;;18.10;99.90;;;;;;5016716;28;20183;-63
2021/07/16 00:42:43;;;;;;;39.80;4.97;;;18.10;99.90;;;;;;5015190;28;20637;-63
2021/07/16 00:45:11;;;;;;;3.40;2.53;;;18.20;99.90;;;;;;5017084;28;20256;-63
2021/07/16 00:47:37;;;;;;;3.63;2.33;;;18.10;99.90;;;;;;5016828;28;20195;-61
2021/07/16 00:50:09;;;;;;;3.13;2.60;;;18.10;99.90;;;;;;5017109;28;20183;-63
2021/07/16 00:52:35;;;;;;;1.90;1.80;;;18.10;99.90;;;;;;5016652;28;20185;-63
2021/07/16 00:55:01;;;;;;;2.10;2.00;;;18.10;99.90;;;;;;5017347;28;20179;-63
2021/07/16 00:57:27;;;;;;;2.43;2.23;;;18.10;99.90;;;;;;5016725;28;20198;-61
2021/07/16 00:59:52;;;;;;;2.40;2.30;;;18.10;99.90;;;;;;5016550;28;20182;-59
2021/07/16 01:02:18;;;;;;;2.10;2.00;;;17.90;99.90;;;;;;5016227;28;20202;-59
2021/07/16 01:04:44;;;;;;;2.33;2.20;;;17.80;99.90;;;;;;5016404;28;20182;-61
2021/07/16 01:07:09;;;;;;;1.93;1.83;;;17.90;99.90;;;;;;5016497;28;20259;-63
2021/07/16 01:09:35;;;;;;;1.80;1.70;;;18.00;99.90;;;;;;5016287;28;20231;-62
2021/07/16 01:12:02;;;;;;;1.60;1.50;;;18.00;99.90;;;;;;5016338;28;20190;-60
2021/07/16 01:14:29;;;;;;;1.67;1.57;;;17.80;99.90;;;;;;5016302;28;20296;-61
2021/07/16 01:16:55;;;;;;;1.50;1.40;;;17.80;99.90;;;;;;5016353;28;20272;-60
2021/07/16 01:19:34;;;;;;;1.87;1.77;;;17.80;99.90;;;;;;5016325;28;20182;-60
2021/07/16 01:22:02;;;;;;;3.67;2.37;;;17.80;99.90;;;;;;5014181;28;20221;-62
2021/07/16 01:24:27;;;;;;;4.13;3.73;;;17.70;99.90;;;;;;5016604;28;20201;-59
2021/07/16 01:26:53;;;;;;;3.40;2.90;;;17.70;99.90;;;;;;5016602;28;20205;-60
2021/07/16 01:29:19;;;;;;;1.90;1.80;;;17.70;99.90;;;;;;5016048;28;20232;-62
2021/07/16 01:31:45;;;;;;;1.40;1.30;;;17.60;99.90;;;;;;5015792;28;20215;-61
2021/07/16 01:34:12;;;;;;;2.13;1.93;;;17.50;99.90;;;;;;5015827;28;20538;-63
2021/07/16 01:36:37;;;;;;;1.67;1.57;;;17.60;99.90;;;;;;5016326;28;20179;-61
2021/07/16 01:39:03;;;;;;;2.50;2.40;;;17.50;99.90;;;;;;5016421;28;20253;-61
2021/07/16 01:41:29;;;;;;;1.93;1.83;;;17.40;99.90;;;;;;5015909;28;20542;-61
2021/07/16 01:43:54;;;;;;;2.17;2.00;;;17.50;99.90;;;;;;5030241;28;20319;-59
2021/07/16 01:46:20;;;;;;;2.20;2.10;;;17.60;99.90;;;;;;5035511;28;20657;-58
2021/07/16 01:48:46;;;;;;;2.07;1.97;;;17.70;99.90;;;;;;5035599;28;20518;-60
2021/07/16 01:51:11;;;;;;;2.00;1.90;;;17.80;99.90;;;;;;5035491;28;20182;-61
2021/07/16 01:53:37;;;;;;;2.10;2.00;;;17.90;99.90;;;;;;5035823;28;20177;-59
2021/07/16 01:56:02;;;;;;;2.40;2.20;;;17.90;99.90;;;;;;5035367;28;20177;-63
2021/07/16 01:58:28;;;;;;;2.10;2.00;;;17.90;99.90;;;;;;5035135;28;20644;-63
2021/07/16 02:00:54;;;;;;;2.10;2.00;;;17.90;99.90;;;;;;5034780;28;20606;-62
2021/07/16 02:03:19;;;;;;;2.57;2.37;;;18.00;99.90;;;;;;5035468;28;20201;-61
2021/07/16 02:05:46;;;;;;;2.57;2.37;;;18.00;99.90;;;;;;5035736;28;20187;-63
2021/07/16 02:08:18;;;;;;;2.43;2.33;;;17.90;99.90;;;;;;5034994;28;20196;-58
2021/07/16 02:10:47;;;;;;;2.93;2.03;;;17.90;99.90;;;;;;5035056;28;20555;-59
2021/07/16 02:13:13;;;;;;;2.40;2.20;;;17.80;99.90;;;;;;5034748;28;20608;-58
2021/07/16 02:15:41;;;;;;;3.70;3.40;;;17.80;99.90;;;;;;5035162;28;20592;-61
2021/07/16 02:18:07;;;;;;;2.83;2.63;;;17.60;99.90;;;;;;5035151;28;20570;-56
2021/07/16 02:20:35;;;;;;;2.87;2.67;;;17.30;99.90;;;;;;5034697;28;20680;-60
2021/07/16 02:23:05;;;;;;;3.70;3.00;;;17.30;99.90;;;;;;5035475;28;20241;-62
2021/07/16 02:25:31;;;;;;;2.03;1.90;;;17.30;99.90;;;;;;5035056;28;20195;-60
2021/07/16 02:28:17;;;;;;;2.13;1.93;;;17.30;99.90;;;;;;5034595;28;20230;-59
2021/07/16 02:30:43;;;;;;;3.80;2.97;;;17.30;99.90;;;;;;5034543;28;20621;-60
2021/07/16 02:33:09;;;;;;;2.40;2.20;;;17.30;99.90;;;;;;5034345;28;20641;-61
2021/07/16 02:35:35;;;;;;;15.30;2.80;;;17.30;99.90;;;;;;5033679;28;20187;-60
2021/07/16 02:38:03;;;;;;;103.23;6.37;;;17.30;99.90;;;;;;5034517;28;20199;-61
2021/07/16 02:40:29;;;;;;;2.20;2.10;;;17.20;99.90;;;;;;5034410;28;20199;-62
2021/07/16 02:42:55;;;;;;;3.83;2.07;;;17.30;99.90;;;;;;5034093;28;20591;-60
2021/07/16 02:45:22;;;;;;;29.63;4.10;;;17.20;99.90;;;;;;5034301;28;20694;-60
2021/07/16 02:47:49;;;;;;;4.83;3.43;;;17.20;99.90;;;;;;5034785;28;20210;-60
2021/07/16 02:50:18;;;;;;;3.37;2.90;;;17.10;99.90;;;;;;5035072;28;20342;-63
2021/07/16 02:52:44;;;;;;;3.33;3.10;;;17.20;99.90;;;;;;5034409;28;20190;-59
2021/07/16 02:55:10;;;;;;;3.40;3.20;;;17.30;99.90;;;;;;5034235;28;20176;-59
2021/07/16 02:57:36;;;;;;;4.67;4.00;;;17.40;99.90;;;;;;5034180;28;20240;-60
2021/07/16 03:00:03;;;;;;;5.77;4.60;;;17.50;99.90;;;;;;5034255;28;20175;-61
2021/07/16 03:02:29;;;;;;;7.30;5.83;;;17.50;99.90;;;;;;5033835;28;20254;-62
2021/07/16 03:04:56;;;;;;;7.80;6.20;;;17.60;99.90;;;;;;5034322;28;20230;-60
2021/07/16 03:07:22;;;;;;;5.53;5.00;;;17.60;99.90;;;;;;5034192;28;20200;-62
2021/07/16 03:09:47;;;;;;;5.47;4.43;;;17.60;99.90;;;;;;5034129;28;20184;-63
2021/07/16 03:12:13;;;;;;;4.17;3.80;;;17.50;99.90;;;;;;5032868;28;20179;-57
2021/07/16 03:14:39;;;;;;;4.50;3.40;;;17.60;99.90;;;;;;5033760;28;20187;-57
2021/07/16 03:17:07;;;;;;;3.40;3.10;;;17.60;99.90;;;;;;5034339;28;20552;-59
2021/07/16 03:19:34;;;;;;;4.00;3.70;;;17.70;99.90;;;;;;5033902;28;20180;-63
2021/07/16 03:21:59;;;;;;;3.60;3.30;;;17.70;99.90;;;;;;5033419;28;20210;-63
2021/07/16 03:24:25;;;;;;;3.50;3.20;;;17.80;99.90;;;;;;5033684;28;20536;-62
2021/07/16 03:26:51;;;;;;;3.40;3.10;;;17.80;99.90;;;;;;5034072;28;20517;-63
2021/07/16 03:29:16;;;;;;;4.40;2.80;;;17.80;99.90;;;;;;5034278;28;20219;-61
2021/07/16 03:31:42;;;;;;;3.00;2.80;;;18.40;99.90;;;;;;5033828;28;20180;-60
2021/07/16 03:34:07;;;;;;;5.33;3.00;;;17.90;99.90;;;;;;5033722;28;20245;-63
2021/07/16 03:36:33;;;;;;;3.10;2.90;;;17.90;99.90;;;;;;5034117;28;20184;-59
2021/07/16 03:38:59;;;;;;;4.07;3.77;;;17.90;99.90;;;;;;5033544;28;20200;-63
2021/07/16 03:41:25;;;;;;;3.30;3.10;;;17.80;99.90;;;;;;5033969;28;20255;-60
2021/07/16 03:43:50;;;;;;;3.70;3.40;;;17.90;99.90;;;;;;5033679;28;20200;-61
2021/07/16 03:46:16;;;;;;;4.03;3.67;;;17.90;99.90;;;;;;5036192;28;20176;-57
2021/07/16 03:48:43;;;;;;;5.03;3.70;;;17.90;99.90;;;;;;5037664;28;20204;-62
2021/07/16 03:51:08;;;;;;;4.10;3.80;;;17.90;99.90;;;;;;5037448;28;20180;-62
2021/07/16 03:53:34;;;;;;;4.07;3.77;;;17.90;99.90;;;;;;5037901;28;20173;-62
2021/07/16 03:56:00;;;;;;;5.63;4.50;;;18.00;99.90;;;;;;5038097;28;20172;-60
2021/07/16 03:58:25;;;;;;;4.67;4.27;;;18.00;99.90;;;;;;5037475;28;20230;-61
2021/07/16 04:00:51;;;;;;;4.77;4.37;;;17.90;99.90;;;;;;5037324;28;20211;-62
2021/07/16 04:03:17;;;;;;;6.30;5.70;;;17.90;99.90;;;;;;5037365;28;20172;-61
2021/07/16 04:05:45;;;;;;;5.63;5.13;;;17.90;99.90;;;;;;5037453;28;20181;-59
2021/07/16 04:08:15;;;;;;;4.23;3.93;;;17.90;99.90;;;;;;5032116;28;20221;-62
2021/07/16 04:10:41;;;;;;;4.70;4.30;;;17.90;99.90;;;;;;5036393;28;20190;-60
2021/07/16 04:13:10;;;;;;;4.50;4.10;;;18.00;99.90;;;;;;5036142;28;20258;-61
2021/07/16 04:15:37;;;;;;;5.03;4.63;;;18.10;99.90;;;;;;5035981;28;20176;-61
2021/07/16 04:18:05;;;;;;;5.87;5.37;;;18.10;99.90;;;;;;5036548;28;20204;-59
2021/07/16 04:20:32;;;;;;;8.13;5.27;;;18.10;99.90;;;;;;5036596;28;20654;-62
2021/07/16 04:22:58;;;;;;;5.90;4.60;;;18.20;99.90;;;;;;5037042;28;20544;-59
2021/07/16 04:25:24;;;;;;;5.00;4.60;;;18.20;99.90;;;;;;5050532;28;20674;-60
2021/07/16 04:27:54;;;;;;;4.83;4.30;;;18.10;99.90;;;;;;5036654;28;20229;-62
2021/07/16 04:30:21;;;;;;;5.57;5.07;;;18.10;99.90;;;;;;5036978;28;20170;-62
2021/07/16 04:32:48;;;;;;;7.23;5.33;;;18.00;99.90;;;;;;5036246;28;20579;-62
2021/07/16 04:35:14;;;;;;;5.43;4.63;;;17.70;99.90;;;;;;5036758;28;20253;-62
2021/07/16 04:37:41;;;;;;;5.10;4.70;;;17.50;99.90;;;;;;5036740;28;20570;-59
2021/07/16 04:40:08;;;;;;;5.47;5.07;;;17.60;99.90;;;;;;5036751;28;20178;-62
2021/07/16 04:42:34;;;;;;;5.90;5.40;;;17.60;99.90;;;;;;5023071;28;20544;-60
2021/07/16 04:45:00;;;;;;;6.20;5.10;;;17.50;99.90;;;;;;5016780;28;20620;-62
2021/07/16 04:47:26;;;;;;;6.10;5.37;;;17.60;99.90;;;;;;5017078;28;20528;-60
2021/07/16 04:49:52;;;;;;;6.77;6.17;;;17.50;99.90;;;;;;5016686;28;20185;-60
2021/07/16 04:52:18;;;;;;;6.33;5.73;;;17.60;99.90;;;;;;5016941;28;20249;-60
2021/07/16 04:54:43;;;;;;;6.60;6.00;;;17.60;99.90;;;;;;5016859;28;20191;-62
2021/07/16 04:57:09;;;;;;;6.13;5.63;;;17.70;99.90;;;;;;5015554;28;20201;-62
2021/07/16 04:59:35;;;;;;;7.27;6.37;;;17.90;99.90;;;;;;5016449;28;20220;-63
2021/07/16 05:02:02;;;;;;;6.57;5.97;;;18.10;99.90;;;;;;5016352;28;20201;-60
2021/07/16 05:04:27;;;;;;;7.63;6.93;;;18.30;99.90;;;;;;5016464;28;20174;-59
2021/07/16 05:06:53;;;;;;;8.33;6.80;;;18.30;99.90;;;;;;5016686;28;20176;-59
2021/07/16 05:09:18;;;;;;;7.80;7.00;;;18.20;99.90;;;;;;5016463;28;20639;-59
2021/07/16 05:11:45;;;;;;;8.27;7.47;;;18.40;99.90;;;;;;5016067;28;20254;-59
2021/07/16 05:14:10;;;;;;;8.10;7.37;;;18.50;99.90;;;;;;5016265;28;20207;-62
2021/07/16 05:16:36;;;;;;;7.47;6.77;;;19.00;99.90;;;;;;5016385;28;20208;-61
2021/07/16 05:19:02;;;;;;;8.60;7.43;;;18.30;99.90;;;;;;5016388;28;20643;-60
2021/07/16 05:21:27;;;;;;;8.53;7.73;;;18.30;99.90;;;;;;5016034;28;20206;-62
2021/07/16 05:23:53;;;;;;;7.30;6.60;;;18.30;99.90;;;;;;5016714;28;20164;-57
2021/07/16 05:26:19;;;;;;;8.67;7.87;;;18.40;99.90;;;;;;5016650;28;20165;-60
2021/07/16 05:28:47;;;;;;;8.77;7.97;;;18.40;99.90;;;;;;5016099;28;20196;-55
2021/07/16 05:31:14;;;;;;;9.17;8.30;;;18.50;99.90;;;;;;5015787;28;20637;-56
2021/07/16 05:33:40;;;;;;;8.37;7.57;;;18.60;99.90;;;;;;5016190;28;20176;-60
2021/07/16 05:36:06;;;;;;;9.23;8.33;;;18.60;99.90;;;;;;5016315;28;20173;-60
2021/07/16 05:38:33;;;;;;;14.27;10.37;;;18.60;99.90;;;;;;5016327;28;20206;-62
2021/07/16 05:41:00;;;;;;;9.23;8.33;;;18.50;99.90;;;;;;5016131;28;20188;-59
2021/07/16 05:43:25;;;;;;;8.83;7.97;;;18.40;99.90;;;;;;5025499;28;20578;-58
2021/07/16 05:45:51;;;;;;;9.37;8.27;;;18.40;99.90;;;;;;5035059;28;20642;-59
2021/07/16 05:48:17;;;;;;;9.63;8.73;;;18.30;99.90;;;;;;5034693;28;20655;-61
2021/07/16 05:50:44;;;;;;;9.57;8.60;;;18.30;99.90;;;;;;5033732;28;20235;-62
2021/07/16 05:53:10;;;;;;;8.77;7.70;;;18.30;99.90;;;;;;5035758;28;20543;-63
2021/07/16 05:55:37;;;;;;;9.97;8.97;;;18.30;99.90;;;;;;5035172;28;20310;-60
2021/07/16 05:58:03;;;;;;;10.80;9.80;;;18.30;99.90;;;;;;5034755;28;20219;-62
2021/07/16 06:00:29;;;;;;;11.67;8.57;;;18.30;99.90;;;;;;5035275;28;20179;-60
2021/07/16 06:02:55;;;;;;;8.87;8.07;;;18.20;99.90;;;;;;5034925;28;20316;-63
2021/07/16 06:05:20;;;;;;;8.30;7.50;;;18.10;99.90;;;;;;5034870;28;20446;-61
2021/07/16 06:07:46;;;;;;;10.43;9.43;;;18.30;99.90;;;;;;5033832;28;20199;-63
2021/07/16 06:10:12;;;;;;;10.67;9.57;;;18.30;99.90;;;;;;5034355;28;20198;-60
2021/07/16 06:12:38;;;;;;;8.63;7.83;;;18.40;99.90;;;;;;5034057;28;20176;-63
2021/07/16 06:15:06;;;;;;;9.90;8.90;;;18.40;99.90;;;;;;5034419;28;20210;-62
2021/07/16 06:17:32;;;;;;;9.27;7.67;;;18.30;99.90;;;;;;5033513;28;20277;-59
2021/07/16 06:19:58;;;;;;;9.37;8.40;;;18.40;99.90;;;;;;5033603;28;20227;-61
2021/07/16 06:22:24;;;;;;;8.43;7.43;;;18.50;99.90;;;;;;5034590;28;20587;-56
2021/07/16 06:24:49;;;;;;;9.43;8.53;;;18.40;99.90;;;;;;5033132;28;20938;-61
2021/07/16 06:27:15;;;;;;;8.70;7.90;;;18.40;99.90;;;;;;5032496;28;20202;-60
2021/07/16 06:29:41;;;;;;;8.77;7.87;;;18.40;99.90;;;;;;5033831;28;20182;-59
2021/07/16 06:32:06;;;;;;;8.23;7.43;;;18.60;99.90;;;;;;5033533;28;20180;-59
2021/07/16 06:34:32;;;;;;;8.10;7.33;;;18.60;99.90;;;;;;5034389;28;20263;-61
2021/07/16 06:36:58;;;;;;;7.70;6.90;;;18.50;99.90;;;;;;5034394;28;20203;-59
2021/07/16 06:39:23;;;;;;;7.37;6.77;;;18.50;99.90;;;;;;5033684;28;20189;-61
2021/07/16 06:41:50;;;;;;;6.60;6.00;;;18.60;99.90;;;;;;5034131;28;20207;-61
2021/07/16 06:44:15;;;;;;;7.40;6.77;;;18.80;99.90;;;;;;5034181;28;20168;-58
2021/07/16 06:46:42;;;;;;;6.93;6.33;;;19.00;99.90;;;;;;5034261;28;20176;-62
2021/07/16 06:49:07;;;;;;;7.70;6.53;;;19.10;99.90;;;;;;5034897;28;20176;-61
2021/07/16 06:51:33;;;;;;;7.37;6.73;;;19.90;99.90;;;;;;5034414;28;20187;-59
2021/07/16 06:53:59;;;;;;;6.97;6.37;;;19.20;99.90;;;;;;5034611;28;20183;-62
2021/07/16 06:56:25;;;;;;;6.80;6.20;;;19.00;99.90;;;;;;5034176;28;20215;-62
2021/07/16 06:58:52;;;;;;;6.97;6.00;;;18.80;99.90;;;;;;5034297;28;20293;-60
2021/07/16 07:01:18;;;;;;;7.43;6.80;;;18.70;99.90;;;;;;5034124;28;20219;-60
2021/07/16 07:03:44;;;;;;;6.50;6.00;;;18.70;99.90;;;;;;5034501;28;20501;-61
2021/07/16 07:06:09;;;;;;;7.20;6.50;;;18.70;99.90;;;;;;5034172;28;20714;-61
2021/07/16 07:08:35;;;;;;;7.13;6.53;;;18.90;99.90;;;;;;5034406;28;20202;-62
2021/07/16 07:11:00;;;;;;;7.03;6.43;;;19.10;99.90;;;;;;5033883;28;20169;-61
2021/07/16 07:13:26;;;;;;;5.90;5.40;;;19.10;99.90;;;;;;5034068;28;20192;-60
2021/07/16 07:15:51;;;;;;;6.00;5.50;;;19.40;99.90;;;;;;5033893;28;20262;-62
2021/07/16 07:18:17;;;;;;;5.97;5.47;;;19.50;99.90;;;;;;5033746;28;20211;-63
2021/07/16 07:20:43;;;;;;;5.87;5.37;;;19.80;99.90;;;;;;5033279;28;20230;-63
2021/07/16 07:23:08;;;;;;;5.40;4.90;;;20.00;99.90;;;;;;5034289;28;20172;-63
2021/07/16 07:25:34;;;;;;;6.23;5.73;;;20.30;99.90;;;;;;5032721;28;20204;-61
2021/07/16 07:27:59;;;;;;;6.53;5.93;;;20.50;99.90;;;;;;5034013;28;20192;-62
2021/07/16 07:30:25;;;;;;;5.70;5.20;;;20.60;99.90;;;;;;5033137;28;20688;-60
2021/07/16 07:32:51;;;;;;;6.33;5.83;;;20.60;99.90;;;;;;5033476;28;20258;-61
2021/07/16 07:35:17;;;;;;;6.37;5.77;;;20.30;99.90;;;;;;5033645;28;20168;-62
2021/07/16 07:37:43;;;;;;;5.83;5.33;;;20.10;99.90;;;;;;5033658;28;20192;-59
2021/07/16 07:40:11;;;;;;;5.03;4.63;;;20.20;99.90;;;;;;5033691;28;20175;-61
2021/07/16 07:42:37;;;;;;;5.07;4.67;;;20.20;99.90;;;;;;5033641;28;20659;-60
2021/07/16 07:45:04;;;;;;;6.00;5.50;;;20.70;99.90;;;;;;5033642;28;20176;-59
2021/07/16 07:47:33;;;;;;;5.53;5.03;;;20.80;99.90;;;;;;5033629;28;20596;-61
2021/07/16 07:50:10;;;;;;;5.80;5.30;;;20.80;99.90;;;;;;5032919;28;20176;-60
2021/07/16 07:52:36;;;;;;;6.57;5.97;;;20.70;99.90;;;;;;5033136;28;20632;-63
2021/07/16 07:55:02;;;;;;;4.68;4.38;;;20.50;99.90;;;;;;5033622;28;20192;-62
2021/07/16 07:57:27;;;;;;;6.03;5.53;;;20.50;99.90;;;;;;5033341;28;20223;-60
2021/07/16 07:59:53;;;;;;;5.80;5.30;;;20.60;99.90;;;;;;5033751;28;20627;-61
2021/07/16 08:02:18;;;;;;;5.47;4.97;;;20.50;99.90;;;;;;5031999;28;20620;-57
2021/07/16 08:04:44;;;;;;;5.82;5.32;;;20.30;99.90;;;;;;5032013;28;20227;-62
2021/07/16 08:07:09;;;;;;;5.38;4.97;;;20.20;99.90;;;;;;5032120;28;20648;-59
2021/07/16 08:09:35;;;;;;;5.27;4.87;;;20.30;99.90;;;;;;5031790;28;20283;-60
2021/07/16 08:12:03;;;;;;;5.28;4.45;;;20.30;99.90;;;;;;5031892;28;20198;-63
2021/07/16 08:14:29;;;;;;;5.10;4.70;;;20.40;99.90;;;;;;5031680;28;20186;-59
2021/07/16 08:16:54;;;;;;;4.87;4.47;;;20.30;99.90;;;;;;5032187;28;20602;-57
2021/07/16 08:19:21;;;;;;;4.97;4.57;;;20.10;99.90;;;;;;5031999;28;20172;-56
2021/07/16 08:21:48;;;;;;;5.22;4.72;;;19.90;99.90;;;;;;5031612;28;20200;-60
2021/07/16 08:24:15;;;;;;;5.90;5.40;;;20.00;99.90;;;;;;5032319;28;20187;-63
2021/07/16 08:26:42;;;;;;;5.73;5.23;;;19.80;99.90;;;;;;5033041;28;20310;-60
2021/07/16 08:29:08;;;;;;;5.47;4.97;;;19.70;99.90;;;;;;5032122;28;20168;-63
2021/07/16 08:31:35;;;;;;;5.20;4.80;;;19.90;99.90;;;;;;5033157;28;20464;-61
2021/07/16 08:34:01;;;;;;;5.50;4.97;;;20.10;99.90;;;;;;5036472;28;20198;-57
2021/07/16 08:36:27;;;;;;;5.80;4.33;;;20.00;99.90;;;;;;5036827;28;20168;-62
2021/07/16 08:38:52;;;;;;;5.45;4.95;;;19.90;99.90;;;;;;5036671;28;20533;-60
2021/07/16 08:41:18;;;;;;;4.83;4.43;;;20.00;99.90;;;;;;5036328;28;20559;-59
2021/07/16 08:43:45;;;;;;;4.90;4.50;;;20.20;99.90;;;;;;5035337;28;20345;-61
2021/07/16 08:46:11;;;;;;;5.07;4.68;;;20.30;99.90;;;;;;5034942;28;20176;-61
2021/07/16 08:48:40;;;;;;;4.38;3.97;;;20.40;99.90;;;;;;5036097;28;20242;-62
2021/07/16 08:51:08;;;;;;;3.90;3.60;;;20.60;99.90;;;;;;5035836;28;20240;-56
2021/07/16 08:53:33;;;;;;;4.97;4.47;;;20.80;99.90;;;;;;5036467;28;20264;-62
2021/07/16 08:55:59;;;;;;;3.97;3.67;;;20.90;99.90;;;;;;5035466;28;20209;-62
2021/07/16 08:58:25;;;;;;;4.55;4.18;;;20.90;99.90;;;;;;5036165;28;20208;-62
2021/07/16 09:00:51;;;;;;;3.53;3.22;;;21.00;99.90;;;;;;5036093;28;20201;-62
2021/07/16 09:03:17;;;;;;;4.15;3.10;;;21.10;99.90;;;;;;5036434;28;20212;-62
2021/07/16 09:05:44;;;;;;;3.45;3.15;;;21.10;99.90;;;;;;5036275;28;20555;-57
2021/07/16 09:08:21;;;;;;;3.40;3.10;;;21.10;99.90;;;;;;5036288;28;20197;-61
2021/07/16 09:10:48;;;;;;;3.15;2.95;;;21.10;99.90;;;;;;5036071;28;20183;-62
2021/07/16 09:13:14;;;;;;;2.92;2.72;;;21.20;99.90;;;;;;5034795;28;20195;-60
2021/07/16 09:15:50;;;;;;;2.85;2.40;;;21.30;99.90;;;;;;5022905;28;20195;-60
2021/07/16 09:18:21;;;;;;;3.00;2.70;;;21.30;99.90;;;;;;5015415;28;20199;-62
2021/07/16 09:21:00;;;;;;;4.40;3.40;;;21.50;99.90;;;;;;5015905;28;20282;-59
2021/07/16 09:23:42;;;;;;;3.10;2.80;;;21.70;99.90;;;;;;5014963;28;20192;-62
2021/07/16 09:26:17;;;;;;;2.78;2.53;;;21.70;99.90;;;;;;5016353;28;20180;-62
2021/07/16 09:28:44;;;;;;;3.03;2.80;;;21.60;99.90;;;;;;5015002;28;20192;-60
2021/07/16 09:31:34;;;;;;;2.92;2.65;;;21.70;99.90;;;;;;5015790;28;20181;-60
2021/07/16 09:34:06;;;;;;;2.03;1.92;;;21.80;99.90;;;;;;5014943;28;20188;-60
2021/07/16 09:36:34;;;;;;;3.50;1.73;;;21.90;99.90;;;;;;5014842;28;20192;-60
2021/07/16 09:39:16;;;;;;;2.67;2.10;;;21.80;99.90;;;;;;5016079;28;20235;-61
2021/07/16 09:41:53;;;;;;;2.20;2.08;;;21.70;99.90;;;;;;5025648;28;20196;-56
2021/07/16 09:44:34;;;;;;;3.35;2.10;;;21.60;99.90;;;;;;5034751;28;20650;-60
2021/07/16 09:47:08;;;;;;;1.80;1.70;;;21.60;99.90;;;;;;5034505;28;20203;-58
2021/07/16 09:49:34;;;;;;;1.77;1.67;;;21.60;99.90;;;;;;5035709;28;20176;-58
2021/07/16 09:52:14;;;;;;;1.50;1.40;;;21.80;99.90;;;;;;5034597;28;20180;-57
2021/07/16 09:55:10;;;;;;;1.75;1.30;;;22.00;99.90;;;;;;5035120;28;20691;-60
2021/07/16 09:57:40;;;;;;;1.17;1.17;;;22.30;99.90;;;;;;5035246;28;20211;-60
2021/07/16 10:00:15;;;;;;;2.13;1.38;;;22.50;99.90;;;;;;5035009;28;20168;-62
2021/07/16 10:02:46;;;;;;;1.73;1.45;;;22.50;99.90;;;;;;5033787;28;20238;-62
2021/07/16 10:05:12;;;;;;;1.40;1.30;;;22.50;99.90;;;;;;5035050;28;20199;-61
2021/07/16 10:07:42;;;;;;;1.77;1.20;;;22.50;99.90;;;;;;5034134;28;20667;-61
2021/07/16 10:10:11;;;;;;;1.05;0.82;;;22.70;99.90;;;;;;5033929;28;20191;-62
2021/07/16 10:12:39;;;;;;;1.08;0.98;;;22.60;99.90;;;;;;5033910;28;20706;-61
2021/07/16 10:15:05;;;;;;;1.05;0.95;;;22.50;99.90;;;;;;5033153;28;20195;-60
2021/07/16 10:17:31;;;;;;;1.20;1.10;;;22.50;99.90;;;;;;5035066;28;20195;-60
2021/07/16 10:19:57;;;;;;;1.27;1.00;;;22.50;99.90;;;;;;5034193;28;20176;-62
2021/07/16 10:22:23;;;;;;;2.05;1.00;;;22.60;99.90;;;;;;5034810;28;20266;-62
2021/07/16 10:24:49;;;;;;;1.10;0.80;;;22.70;99.90;;;;;;5034769;28;20251;-62
2021/07/16 10:27:15;;;;;;;0.90;0.90;;;22.80;99.90;;;;;;5034763;28;20215;-57
2021/07/16 10:29:45;;;;;;;1.38;0.90;;;23.10;99.90;;;;;;5029069;28;20218;-61
2021/07/16 10:32:31;;;;;;;0.85;0.85;;;23.30;99.90;;;;;;5033220;28;20188;-63
2021/07/16 10:35:22;;;;;;;0.80;0.80;;;23.60;99.90;;;;;;5032397;28;20191;-62
2021/07/16 10:37:50;;;;;;;0.80;0.80;;;23.80;99.90;;;;;;5034128;28;20184;-62
2021/07/16 10:40:44;;;;;;;1.02;0.73;;;23.90;99.90;;;;;;5033408;28;20210;-62
2021/07/16 10:43:27;;;;;;;2.65;0.98;;;24.40;99.90;;;;;;5033827;28;20176;-62
2021/07/16 10:45:56;;;;;;;0.70;0.70;;;24.60;99.90;;;;;;5033292;28;20179;-62
2021/07/16 10:48:29;;;;;;;0.70;0.70;;;24.70;99.90;;;;;;5033406;28;20248;-60
2021/07/16 10:50:55;;;;;;;1.33;0.90;;;25.00;99.90;;;;;;5032827;28;20176;-63
2021/07/16 10:53:30;;;;;;;0.70;0.70;;;25.10;99.90;;;;;;5033657;28;20179;-63
2021/07/16 10:55:55;;;;;;;0.80;0.80;;;25.20;99.90;;;;;;5032992;28;20172;-62
2021/07/16 10:58:38;;;;;;;1.25;0.93;;;25.00;99.90;;;;;;5031834;28;20188;-61
2021/07/16 11:01:07;;;;;;;0.70;0.70;;;24.90;99.90;;;;;;5032749;28;20210;-57
2021/07/16 11:03:47;;;;;;;1.02;1.00;;;24.80;99.90;;;;;;5033782;28;20172;-63
2021/07/16 11:06:15;;;;;;;0.77;0.77;;;24.60;99.90;;;;;;5033572;28;20179;-63
2021/07/16 11:08:40;;;;;;;1.20;0.80;;;24.70;99.90;;;;;;5033284;28;20226;-63
2021/07/16 11:11:10;;;;;;;1.42;0.80;;;24.90;99.90;;;;;;5032222;28;20203;-54
2021/07/16 11:13:37;;;;;;;1.25;0.90;;;24.50;99.90;;;;;;5032370;28;20163;-62
2021/07/16 11:16:27;;;;;;;1.75;0.90;;;24.40;99.90;;;;;;5032445;28;20662;-63
2021/07/16 11:18:53;;;;;;;0.75;0.75;;;24.60;99.90;;;;;;5033904;28;20680;-62
2021/07/16 11:21:46;;;;;;;1.27;0.80;;;24.60;99.90;;;;;;5032391;28;20253;-63
2021/07/16 11:24:21;;;;;;;0.80;0.80;;;24.90;99.90;;;;;;5033638;28;20680;-61
2021/07/16 11:26:51;;;;;;;0.55;0.55;;;25.00;99.90;;;;;;5032749;28;20186;-62
2021/07/16 11:29:17;;;;;;;0.90;0.90;;;25.20;99.90;;;;;;5033186;28;20234;-62
2021/07/16 11:31:43;;;;;;;0.60;0.60;;;25.40;99.90;;;;;;5032666;28;20164;-61
2021/07/16 11:34:13;;;;;;;1.30;0.80;;;25.20;99.90;;;;;;5033045;28;20187;-63
2021/07/16 11:36:51;;;;;;;0.65;0.65;;;25.00;99.90;;;;;;5033612;28;20210;-63
2021/07/16 11:39:31;;;;;;;0.75;0.75;;;25.10;99.90;;;;;;5032256;28;20159;-62
2021/07/16 11:41:58;;;;;;;0.70;0.70;;;25.10;99.90;;;;;;5033575;28;20198;-60
2021/07/16 11:44:38;;;;;;;3.83;0.73;;;25.10;99.90;;;;;;5033603;28;20219;-61
2021/07/16 11:47:20;;;;;;;1.15;0.70;;;25.20;99.90;;;;;;5031493;28;20200;-63
2021/07/16 11:49:50;;;;;;;1.00;0.82;;;25.40;99.90;;;;;;5032986;28;20172;-60
2021/07/16 11:52:29;;;;;;;0.57;0.57;;;25.50;99.90;;;;;;5033211;28;20171;-61
2021/07/16 11:55:05;;;;;;;0.57;0.57;;;25.80;99.90;;;;;;5032909;28;20183;-62
2021/07/16 11:57:30;;;;;;;1.33;0.70;;;25.80;99.90;;;;;;5032187;28;20222;-57
2021/07/16 11:59:56;;;;;;;1.48;1.00;;;25.80;99.90;;;;;;5033233;28;20509;-61
2021/07/16 12:02:24;;;;;;;0.75;0.75;;;25.90;99.90;;;;;;5031260;28;20200;-62
2021/07/16 12:04:56;;;;;;;1.48;1.08;;;25.90;99.90;;;;;;5032948;28;20172;-57
2021/07/16 12:07:22;;;;;;;0.80;0.80;;;25.80;99.90;;;;;;5034964;28;20271;-61
2021/07/16 12:09:48;;;;;;;1.30;0.80;;;25.90;99.90;;;;;;5035967;28;20279;-59
2021/07/16 12:12:23;;;;;;;0.68;0.68;;;25.90;99.90;;;;;;5034762;28;20188;-60
2021/07/16 12:14:58;;;;;;;1.45;0.80;;;26.20;99.90;;;;;;5036666;28;20198;-62
2021/07/16 12:17:35;;;;;;;1.13;0.60;;;26.20;99.90;;;;;;5035502;28;20206;-61
2021/07/16 12:20:02;;;;;;;0.80;0.80;;;26.10;99.90;;;;;;5037181;28;20184;-62
2021/07/16 12:22:29;;;;;;;1.25;0.80;;;26.20;99.90;;;;;;5036895;28;20203;-62
2021/07/16 12:24:56;;;;;;;1.45;0.90;;;26.10;99.90;;;;;;5037149;28;20628;-61
2021/07/16 12:27:23;;;;;;;0.93;0.93;;;25.80;99.90;;;;;;5035954;28;20266;-59
2021/07/16 12:29:59;;;;;;;1.15;0.98;;;25.80;99.90;;;;;;5035915;28;20202;-62
2021/07/16 12:32:36;;;;;;;1.13;0.80;;;26.00;99.90;;;;;;5036517;28;20573;-62
2021/07/16 12:35:22;;;;;;;2.10;0.95;;;26.60;99.90;;;;;;5035863;28;20261;-61
2021/07/16 12:37:52;;;;;;;1.45;0.95;;;26.70;99.90;;;;;;5034767;28;20223;-60
2021/07/16 12:40:21;;;;;;;0.90;0.70;;;26.40;99.90;;;;;;5035817;28;20555;-61
2021/07/16 12:43:04;;;;;;;1.73;0.90;;;26.40;99.90;;;;;;5036052;28;20196;-61
2021/07/16 12:45:52;;;;;;;0.70;0.70;;;26.20;99.90;;;;;;5034948;28;20660;-61
2021/07/16 12:48:28;;;;;;;1.27;1.00;;;26.20;99.90;;;;;;5036546;28;20210;-60
2021/07/16 12:51:03;;;;;;;1.17;0.90;;;26.40;99.90;;;;;;5033805;28;20188;-62